createdAt,value
2022-10-04T00:00:46.859Z,10.59
2022-10-04T00:03:30.689Z,10.55
2022-10-04T00:05:59.848Z,10.59
2022-10-04T00:08:43.443Z,10.58
2022-10-04T00:11:30.236Z,10.57
2022-10-04T00:14:00.481Z,10.54
2022-10-04T00:16:37.375Z,10.54
2022-10-04T00:19:19.811Z,10.50
2022-10-04T00:21:57.614Z,10.55
2022-10-04T00:24:32.928Z,10.53
2022-10-04T00:27:26.422Z,10.57
2022-10-04T00:30:02.644Z,10.54
2022-10-04T00:32:39.521Z,10.49
2022-10-04T00:35:33.233Z,10.49
2022-10-04T00:38:00.677Z,10.53
2022-10-04T00:40:34.014Z,10.53
2022-10-04T00:43:30.908Z,10.54
2022-10-04T00:46:21.411Z,10.58
2022-10-04T00:48:52.972Z,10.63
2022-10-04T00:51:45.568Z,10.64
2022-10-04T00:54:26.120Z,10.64
2022-10-04T00:56:57.414Z,10.57
2022-10-04T00:59:33.987Z,10.62
2022-10-04T01:02:19.766Z,10.56
2022-10-04T01:04:56.103Z,10.57
2022-10-04T01:07:33.259Z,10.54
2022-10-04T01:10:07.175Z,10.51
2022-10-04T01:12:41.874Z,10.46
2022-10-04T01:15:16.261Z,10.47
2022-10-04T01:18:26.379Z,10.44
2022-10-04T01:20:56.614Z,10.46
2022-10-04T01:23:48.528Z,10.45
2022-10-04T01:26:32.296Z,10.48
2022-10-04T01:29:25.858Z,10.42
2022-10-04T01:32:00.679Z,10.44
2022-10-04T01:34:30.527Z,10.43
2022-10-04T01:37:01.279Z,10.40
2022-10-04T01:39:29.183Z,10.38
2022-10-04T01:42:00.247Z,10.34
2022-10-04T01:44:38.650Z,10.34
2022-10-04T01:47:14.259Z,10.44
2022-10-04T01:50:50.648Z,10.37
2022-10-04T01:53:27.739Z,10.34
2022-10-04T01:56:07.354Z,10.43
2022-10-04T01:58:43.276Z,10.41
2022-10-04T02:01:16.266Z,10.39
2022-10-04T02:03:54.641Z,10.34
2022-10-04T02:06:23.927Z,10.38
2022-10-04T02:08:57.617Z,10.32
2022-10-04T02:11:30.305Z,10.34
2022-10-04T02:13:58.093Z,10.33
2022-10-04T02:16:26.548Z,10.25
2022-10-04T02:18:55.131Z,10.27
2022-10-04T02:21:23.518Z,10.28
2022-10-04T02:23:52.739Z,10.26
2022-10-04T02:26:20.961Z,10.23
2022-10-04T02:28:50.028Z,10.25
2022-10-04T02:31:41.323Z,10.29
2022-10-04T02:34:09.933Z,10.21
2022-10-04T02:36:39.592Z,10.20
2022-10-04T02:39:20.280Z,10.22
2022-10-04T02:42:03.867Z,10.16
2022-10-04T02:44:43.660Z,10.18
2022-10-04T02:47:29.397Z,10.13
2022-10-04T02:50:05.033Z,10.19
2022-10-04T02:52:45.157Z,10.21
2022-10-04T02:55:25.826Z,10.12
2022-10-04T02:57:54.151Z,10.13
2022-10-04T03:00:24.967Z,10.15
2022-10-04T03:03:16.056Z,10.15
2022-10-04T03:06:04.202Z,10.12
2022-10-04T03:08:44.634Z,10.07
2022-10-04T03:11:14.387Z,10.07
2022-10-04T03:13:46.842Z,10.06
2022-10-04T03:16:15.006Z,10.02
2022-10-04T03:18:44.045Z,10.02
2022-10-04T03:21:15.592Z,10.03
2022-10-04T03:23:43.891Z,10.01
2022-10-04T03:26:29.632Z,10.00
2022-10-04T03:28:58.145Z,10.06
2022-10-04T03:31:27.908Z,10.00
2022-10-04T03:33:57.544Z,10.01
2022-10-04T03:36:27.145Z,10.03
2022-10-04T03:38:57.730Z,9.99
2022-10-04T03:41:26.282Z,10.00
2022-10-04T03:43:56.067Z,10.05
2022-10-04T03:46:24.629Z,10.01
2022-10-04T03:48:56.957Z,10.00
2022-10-04T03:51:26.309Z,9.99
2022-10-04T03:53:56.087Z,9.98
2022-10-04T03:56:29.625Z,9.98
2022-10-04T03:58:57.300Z,9.95
2022-10-04T04:01:44.930Z,9.91
2022-10-04T04:04:35.698Z,9.94
2022-10-04T04:07:06.895Z,9.93
2022-10-04T04:09:38.466Z,9.91
2022-10-04T04:12:12.751Z,9.91
2022-10-04T04:14:45.616Z,9.94
2022-10-04T04:17:36.026Z,9.95
2022-10-04T04:20:12.798Z,9.94
2022-10-04T04:22:44.543Z,9.90
2022-10-04T04:25:16.134Z,9.97
2022-10-04T04:27:47.108Z,9.94
2022-10-04T04:30:17.998Z,9.92
2022-10-04T04:32:51.437Z,9.89
2022-10-04T04:35:31.400Z,9.80
2022-10-04T04:38:17.026Z,9.86
2022-10-04T04:40:45.427Z,9.88
2022-10-04T04:43:19.556Z,9.86
2022-10-04T04:46:02.869Z,9.77
2022-10-04T04:48:37.466Z,9.84
2022-10-04T04:51:05.431Z,9.81
2022-10-04T04:53:37.722Z,9.75
2022-10-04T04:56:10.210Z,9.77
2022-10-04T04:58:47.162Z,9.68
2022-10-04T05:01:29.263Z,9.74
2022-10-04T05:04:14.363Z,9.77
2022-10-04T05:06:47.459Z,9.69
2022-10-04T05:09:41.255Z,9.65
2022-10-04T05:12:20.801Z,9.67
2022-10-04T05:14:59.710Z,9.66
2022-10-04T05:17:50.635Z,9.68
2022-10-04T05:20:22.137Z,9.67
2022-10-04T05:22:51.436Z,9.58
2022-10-04T05:25:29.229Z,9.48
2022-10-04T05:27:58.205Z,9.46
2022-10-04T05:30:29.000Z,9.46
2022-10-04T05:33:03.515Z,9.50
2022-10-04T05:35:46.642Z,9.44
2022-10-04T05:38:35.809Z,9.46
2022-10-04T05:41:09.433Z,9.51
2022-10-04T05:43:46.099Z,9.42
2022-10-04T05:46:33.461Z,9.49
2022-10-04T05:49:19.341Z,9.42
2022-10-04T05:52:01.055Z,9.47
2022-10-04T05:54:32.941Z,9.52
2022-10-04T05:57:15.944Z,9.57
2022-10-04T06:00:08.584Z,9.66
2022-10-04T06:03:13.472Z,9.69
2022-10-04T06:05:50.125Z,9.73
2022-10-04T06:08:32.545Z,9.64
2022-10-04T06:11:32.366Z,9.65
2022-10-04T06:14:11.022Z,9.71
2022-10-04T06:17:08.618Z,9.68
2022-10-04T06:20:12.973Z,9.70
2022-10-04T06:22:56.283Z,9.71
2022-10-04T06:25:29.977Z,9.68
2022-10-04T06:28:03.934Z,9.66
2022-10-04T06:30:43.769Z,9.69
2022-10-04T06:33:34.524Z,9.70
2022-10-04T06:36:20.650Z,9.75
2022-10-04T06:39:04.070Z,9.74
2022-10-04T06:42:16.429Z,9.76
2022-10-04T06:45:18.062Z,9.78
2022-10-04T06:47:55.926Z,9.83
2022-10-04T06:50:44.307Z,9.95
2022-10-04T06:53:37.478Z,9.91
2022-10-04T06:56:27.443Z,9.90
2022-10-04T06:59:17.363Z,9.94
2022-10-04T07:01:58.845Z,10.10
2022-10-04T07:04:50.258Z,10.19
2022-10-04T07:07:41.148Z,10.22
2022-10-04T07:10:08.791Z,10.23
2022-10-04T07:13:03.847Z,10.32
2022-10-04T07:15:46.100Z,10.31
2022-10-04T07:18:22.307Z,10.45
2022-10-04T07:20:59.780Z,10.47
2022-10-04T07:23:39.831Z,10.68
2022-10-04T07:26:23.149Z,10.70
2022-10-04T07:29:13.302Z,10.70
2022-10-04T07:31:42.707Z,10.76
2022-10-04T07:34:17.252Z,10.87
2022-10-04T07:36:57.239Z,11.04
2022-10-04T07:39:30.540Z,11.07
2022-10-04T07:42:20.220Z,11.07
2022-10-04T07:45:14.587Z,11.10
2022-10-04T07:48:12.974Z,11.05
2022-10-04T07:51:10.038Z,11.13
2022-10-04T07:53:48.506Z,11.20
2022-10-04T07:56:50.904Z,11.28
2022-10-04T08:00:00.550Z,11.33
2022-10-04T08:02:52.820Z,11.28
2022-10-04T08:05:24.750Z,11.20
2022-10-04T08:08:26.492Z,11.25
2022-10-04T08:11:10.823Z,11.26
2022-10-04T08:13:38.200Z,11.35
2022-10-04T08:16:27.318Z,11.43
2022-10-04T08:19:16.273Z,11.38
2022-10-04T08:22:44.199Z,11.52
2022-10-04T08:25:21.119Z,11.60
2022-10-04T08:28:24.772Z,11.60
2022-10-04T08:31:06.550Z,11.65
2022-10-04T08:34:03.036Z,11.71
2022-10-04T08:36:50.234Z,11.65
2022-10-04T08:39:43.491Z,11.58
2022-10-04T08:42:50.143Z,11.54
2022-10-04T08:45:33.142Z,11.50
2022-10-04T08:48:24.799Z,11.58
2022-10-04T08:51:29.807Z,11.70
2022-10-04T08:54:18.686Z,11.81
2022-10-04T08:57:16.502Z,11.74
2022-10-04T09:00:16.582Z,11.81
2022-10-04T09:03:26.521Z,11.78
2022-10-04T09:06:33.191Z,11.85
2022-10-04T09:09:48.212Z,11.97
2022-10-04T09:12:30.161Z,11.92
2022-10-04T09:15:08.468Z,12.00
2022-10-04T09:18:02.113Z,12.14
2022-10-04T09:21:02.537Z,12.25
2022-10-04T09:23:57.888Z,12.45
2022-10-04T09:26:44.332Z,12.64
2022-10-04T09:29:34.722Z,12.51
2022-10-04T09:32:36.963Z,12.61
2022-10-04T09:35:24.295Z,12.74
2022-10-04T09:38:19.223Z,12.74
2022-10-04T09:41:35.477Z,13.28
2022-10-04T09:44:24.863Z,13.67
2022-10-04T09:47:19.413Z,13.55
2022-10-04T09:50:17.562Z,13.56
2022-10-04T09:52:57.481Z,13.45
2022-10-04T09:55:44.997Z,13.37
2022-10-04T09:58:38.461Z,13.26
2022-10-04T10:01:11.770Z,13.20
2022-10-04T10:03:54.225Z,13.20
2022-10-04T10:06:49.051Z,13.18
2022-10-04T10:10:17.505Z,13.51
2022-10-04T10:13:41.126Z,13.52
2022-10-04T10:16:30.556Z,13.68
2022-10-04T10:19:28.773Z,13.56
2022-10-04T10:22:40.609Z,13.76
2022-10-04T10:25:44.210Z,13.49
2022-10-04T10:28:38.471Z,13.33
2022-10-04T10:31:24.182Z,13.37
2022-10-04T10:34:13.552Z,13.39
2022-10-04T10:37:05.574Z,13.49
2022-10-04T10:40:03.699Z,13.53
2022-10-04T10:42:56.342Z,13.53
2022-10-04T10:45:46.257Z,13.55
2022-10-04T10:48:28.900Z,13.50
2022-10-04T10:51:22.996Z,13.65
2022-10-04T10:54:25.343Z,13.82
2022-10-04T10:57:06.343Z,13.64
2022-10-04T11:00:12.150Z,13.93
2022-10-04T11:03:13.198Z,13.90
2022-10-04T11:06:01.637Z,14.04
2022-10-04T11:08:32.731Z,14.13
2022-10-04T11:11:20.142Z,14.06
2022-10-04T11:13:59.814Z,13.96
2022-10-04T11:16:56.770Z,14.07
2022-10-04T11:20:05.581Z,14.20
2022-10-04T11:22:51.845Z,14.33
2022-10-04T11:25:39.977Z,14.24
2022-10-04T11:28:17.095Z,14.17
2022-10-04T11:31:01.664Z,14.10
2022-10-04T11:34:00.699Z,14.03
2022-10-04T11:36:34.977Z,14.32
2022-10-04T11:39:18.592Z,14.70
2022-10-04T11:42:03.977Z,15.20
2022-10-04T11:45:05.602Z,15.03
2022-10-04T11:47:58.136Z,14.92
2022-10-04T11:50:51.495Z,14.91
2022-10-04T11:53:43.217Z,14.71
2022-10-04T11:56:26.236Z,14.53
2022-10-04T11:59:25.831Z,14.30
2022-10-04T12:02:17.301Z,14.15
2022-10-04T12:05:07.290Z,14.00
2022-10-04T12:07:58.698Z,14.02
2022-10-04T12:10:36.438Z,14.46
2022-10-04T12:13:25.148Z,14.66
2022-10-04T12:16:18.805Z,14.80
2022-10-04T12:19:17.182Z,14.89
2022-10-04T12:22:05.717Z,14.90
2022-10-04T12:25:09.566Z,14.68
2022-10-04T12:28:29.529Z,14.70
2022-10-04T12:31:16.508Z,14.90
2022-10-04T12:33:54.395Z,15.15
2022-10-04T12:36:27.805Z,15.41
2022-10-04T12:38:58.049Z,15.31
2022-10-04T12:42:08.815Z,15.30
2022-10-04T12:44:58.021Z,15.29
2022-10-04T12:47:48.805Z,15.18
2022-10-04T12:50:45.167Z,15.26
2022-10-04T12:53:38.329Z,15.31
2022-10-04T12:56:22.128Z,15.45
2022-10-04T12:58:56.661Z,15.43
2022-10-04T13:01:45.435Z,15.44
2022-10-04T13:04:36.029Z,15.56
2022-10-04T13:07:45.157Z,15.66
2022-10-04T13:10:26.279Z,15.68
2022-10-04T13:13:05.561Z,15.72
2022-10-04T13:18:46.083Z,15.63
2022-10-04T13:25:38.860Z,15.55
2022-10-04T13:28:27.750Z,15.56
2022-10-04T13:31:24.579Z,15.56
2022-10-04T13:34:20.083Z,15.60
2022-10-04T13:37:27.912Z,15.66
2022-10-04T13:40:18.913Z,15.75
2022-10-04T13:42:55.216Z,15.78
2022-10-04T13:45:44.506Z,15.77
2022-10-04T13:48:30.882Z,15.75
2022-10-04T13:51:28.349Z,15.89
2022-10-04T13:54:34.767Z,16.06
2022-10-04T13:57:31.187Z,16.04
2022-10-04T14:00:15.363Z,15.99
2022-10-04T14:03:18.993Z,16.19
2022-10-04T14:06:20.569Z,16.25
2022-10-04T14:09:13.757Z,16.16
2022-10-04T14:11:42.380Z,16.14
2022-10-04T14:14:48.069Z,16.31
2022-10-04T14:17:56.741Z,16.40
2022-10-04T14:25:07.540Z,16.29
2022-10-04T14:28:17.390Z,16.10
2022-10-04T14:31:21.219Z,16.05
2022-10-04T14:34:00.639Z,16.12
2022-10-04T14:36:55.640Z,16.16
2022-10-04T14:40:19.243Z,16.06
2022-10-04T14:43:15.297Z,15.99
2022-10-04T14:46:22.694Z,15.93
2022-10-04T14:48:59.187Z,16.03
2022-10-04T14:52:02.412Z,15.96
2022-10-04T14:54:40.451Z,15.81
2022-10-04T14:57:46.475Z,15.88
2022-10-04T15:00:19.551Z,15.74
2022-10-04T15:03:29.123Z,15.87
2022-10-04T15:06:12.074Z,15.95
2022-10-04T15:08:51.658Z,15.94
2022-10-04T15:11:43.979Z,16.00
2022-10-04T15:14:34.243Z,15.94
2022-10-04T15:17:05.762Z,15.96
2022-10-04T15:19:36.897Z,15.99
2022-10-04T15:22:21.137Z,15.99
2022-10-04T15:24:51.282Z,16.07
2022-10-04T15:27:50.307Z,16.02
2022-10-04T15:30:47.096Z,16.05
2022-10-04T15:33:43.317Z,16.14
2022-10-04T15:36:23.963Z,16.13
2022-10-04T15:39:08.318Z,16.09
2022-10-04T15:42:07.693Z,15.82
2022-10-04T15:44:43.936Z,15.88
2022-10-04T15:47:23.206Z,15.80
2022-10-04T15:50:31.225Z,15.73
2022-10-04T15:53:20.486Z,15.63
2022-10-04T15:55:59.629Z,15.59
2022-10-04T15:58:52.831Z,15.46
2022-10-04T16:01:35.527Z,15.26
2022-10-04T16:04:23.012Z,15.24
2022-10-04T16:06:58.346Z,15.11
2022-10-04T16:09:37.933Z,14.98
2022-10-04T16:12:23.033Z,14.75
2022-10-04T16:14:59.277Z,14.61
2022-10-04T16:17:41.899Z,14.43
2022-10-04T16:20:40.699Z,14.28
2022-10-04T16:23:26.430Z,14.13
2022-10-04T16:26:27.211Z,14.02
2022-10-04T16:29:20.162Z,13.81
2022-10-04T16:32:06.170Z,13.64
2022-10-04T16:34:48.983Z,13.52
2022-10-04T16:37:30.219Z,13.36
2022-10-04T16:40:35.123Z,13.27
2022-10-04T16:43:26.116Z,13.11
2022-10-04T16:45:53.593Z,13.09
2022-10-04T16:48:41.861Z,13.01
2022-10-04T16:51:18.132Z,12.93
2022-10-04T16:54:00.195Z,12.81
2022-10-04T16:56:31.762Z,12.73
2022-10-04T16:59:04.842Z,12.63
2022-10-04T17:01:55.109Z,12.58
2022-10-04T17:04:41.318Z,12.54
2022-10-04T17:07:14.093Z,12.53
2022-10-04T17:10:07.270Z,12.49
2022-10-04T17:12:53.429Z,12.46
2022-10-04T17:15:49.010Z,12.39
2022-10-04T17:18:51.452Z,12.34
2022-10-04T17:21:31.463Z,12.30
2022-10-04T17:24:10.912Z,12.29
2022-10-04T17:27:17.813Z,12.21
2022-10-04T17:30:02.032Z,12.23
2022-10-04T17:32:55.414Z,12.25
2022-10-04T17:35:54.014Z,12.23
2022-10-04T17:38:36.565Z,12.19
2022-10-04T17:41:23.811Z,12.24
2022-10-04T17:44:28.289Z,12.23
2022-10-04T17:47:21.544Z,12.17
2022-10-04T17:50:40.756Z,12.11
2022-10-04T17:53:37.448Z,12.28
2022-10-04T17:56:09.238Z,12.21
2022-10-04T17:58:47.669Z,12.18
2022-10-04T18:01:28.737Z,12.09
2022-10-04T18:04:09.196Z,12.01
2022-10-04T18:06:50.668Z,11.97
2022-10-04T18:09:59.219Z,11.91
2022-10-04T18:12:40.592Z,11.81
2022-10-04T18:15:48.929Z,11.74
2022-10-04T18:18:27.943Z,11.78
2022-10-04T18:21:07.323Z,11.73
2022-10-04T18:23:39.885Z,11.62
2022-10-04T18:26:19.649Z,11.66
2022-10-04T18:28:48.815Z,11.69
2022-10-04T18:31:39.858Z,11.51
2022-10-04T18:34:15.235Z,11.54
2022-10-04T18:37:06.057Z,11.61
2022-10-04T18:39:45.732Z,11.79
2022-10-04T18:42:21.000Z,11.97
2022-10-04T18:44:59.260Z,11.97
2022-10-04T18:47:40.691Z,11.90
2022-10-04T18:50:21.282Z,11.89
2022-10-04T18:52:58.343Z,11.90
2022-10-04T18:55:40.972Z,11.71
2022-10-04T18:59:14.210Z,11.81
2022-10-04T19:02:10.687Z,11.68
2022-10-04T19:05:15.733Z,11.66
2022-10-04T19:08:03.940Z,11.61
2022-10-04T19:10:44.285Z,11.45
2022-10-04T19:13:23.284Z,11.46
2022-10-04T19:16:08.412Z,11.40
2022-10-04T19:19:28.616Z,11.37
2022-10-04T19:22:03.113Z,11.33
2022-10-04T19:25:06.176Z,11.35
2022-10-04T19:27:48.071Z,11.38
2022-10-04T19:30:20.724Z,11.34
2022-10-04T19:33:03.410Z,11.25
2022-10-04T19:35:49.467Z,11.18
2022-10-04T19:38:31.757Z,11.11
2022-10-04T19:41:23.741Z,11.10
2022-10-04T19:44:23.259Z,11.12
2022-10-04T19:47:19.007Z,11.08
2022-10-04T19:50:03.553Z,11.08
2022-10-04T19:52:46.348Z,10.98
2022-10-04T19:55:23.080Z,10.90
2022-10-04T19:57:58.575Z,10.83
2022-10-04T20:00:25.820Z,10.81
2022-10-04T20:02:53.654Z,10.83
2022-10-04T20:05:25.099Z,10.85
2022-10-04T20:07:57.877Z,10.85
2022-10-04T20:10:36.619Z,10.76
2022-10-04T20:13:24.993Z,10.69
2022-10-04T20:15:58.576Z,10.64
2022-10-04T20:18:34.627Z,10.61
2022-10-04T20:21:01.903Z,10.58
2022-10-04T20:23:38.343Z,10.64
2022-10-04T20:26:53.770Z,10.63
2022-10-04T20:29:37.327Z,10.71
2022-10-04T20:32:09.693Z,10.62
2022-10-04T20:34:37.622Z,10.57
2022-10-04T20:37:05.868Z,10.54
2022-10-04T20:39:56.682Z,10.57
2022-10-04T20:42:36.613Z,10.48
2022-10-04T20:45:11.939Z,10.53
2022-10-04T20:47:42.102Z,10.51
2022-10-04T20:50:39.829Z,10.65
2022-10-04T20:53:19.423Z,10.75
2022-10-04T20:55:47.831Z,10.71
2022-10-04T20:58:35.070Z,10.69
2022-10-04T21:01:41.302Z,10.58
2022-10-04T21:04:54.543Z,10.53
2022-10-04T21:07:26.770Z,10.42
2022-10-04T21:10:07.215Z,10.37
2022-10-04T21:12:34.465Z,10.48
2022-10-04T21:15:29.602Z,10.47
2022-10-04T21:18:08.522Z,10.46
2022-10-04T21:20:45.946Z,10.42
2022-10-04T21:23:34.001Z,10.35
2022-10-04T21:26:23.663Z,10.30
2022-10-04T21:28:54.280Z,10.22
2022-10-04T21:31:21.649Z,10.20
2022-10-04T21:33:48.955Z,10.10
2022-10-04T21:36:16.293Z,10.05
2022-10-04T21:38:43.465Z,10.00
2022-10-04T21:41:10.618Z,10.02
2022-10-04T21:43:37.824Z,10.11
2022-10-04T21:46:05.794Z,10.08
2022-10-04T21:48:33.069Z,10.05
2022-10-04T21:51:00.245Z,10.12
2022-10-04T21:53:27.450Z,10.10
2022-10-04T21:55:56.369Z,10.05
2022-10-04T21:58:26.343Z,9.99
2022-10-04T22:00:53.980Z,9.89
2022-10-04T22:03:21.228Z,9.83
2022-10-04T22:05:54.327Z,9.89
2022-10-04T22:08:21.983Z,9.81
2022-10-04T22:10:49.250Z,9.78
2022-10-04T22:13:20.410Z,9.65
2022-10-04T22:15:48.026Z,9.55
2022-10-04T22:18:19.793Z,9.57
2022-10-04T22:20:47.183Z,9.56
2022-10-04T22:23:20.510Z,9.53
2022-10-04T22:25:48.049Z,9.57
2022-10-04T22:28:22.862Z,9.58
2022-10-04T22:30:52.223Z,9.51
2022-10-04T22:33:32.295Z,9.45
2022-10-04T22:36:19.610Z,9.49
2022-10-04T22:39:08.841Z,9.27
2022-10-04T22:41:39.812Z,9.21
2022-10-04T22:44:23.419Z,9.23
2022-10-04T22:46:53.617Z,9.22
2022-10-04T22:49:26.395Z,9.26
2022-10-04T22:51:56.060Z,9.30
2022-10-04T22:54:27.376Z,9.37
2022-10-04T22:56:54.553Z,9.57
2022-10-04T22:59:27.181Z,9.59
2022-10-04T23:01:54.373Z,9.55
2022-10-04T23:04:24.809Z,9.52
2022-10-04T23:06:53.638Z,9.57
2022-10-04T23:09:21.004Z,9.59
2022-10-04T23:11:48.883Z,9.61
2022-10-04T23:14:15.993Z,9.63
2022-10-04T23:16:44.652Z,9.70
2022-10-04T23:19:18.734Z,9.76
2022-10-04T23:21:49.934Z,9.75
2022-10-04T23:24:22.301Z,9.79
2022-10-04T23:26:54.918Z,9.78
2022-10-04T23:29:30.157Z,9.78
2022-10-04T23:31:58.149Z,9.76
2022-10-04T23:34:35.438Z,9.88
2022-10-04T23:37:03.797Z,10.03
2022-10-04T23:39:34.777Z,10.13
2022-10-04T23:42:15.893Z,10.17
2022-10-04T23:44:43.163Z,10.12
2022-10-04T23:47:17.480Z,10.08
2022-10-04T23:49:46.872Z,10.15
2022-10-04T23:52:24.480Z,10.21
2022-10-04T23:54:54.694Z,10.25
2022-10-04T23:57:24.729Z,10.22
2022-10-04T23:59:52.306Z,10.25
